sensor_id;sensor_type;location;lat;lon;timestamp;P1;durP1;ratioP1;P2;durP2;ratioP2
71288;SDS011;59068;52.502;9.860;2022-07-09T00:01:42;2.83;;;2.10;;
71288;SDS011;59068;52.502;9.860;2022-07-09T00:04:07;4.73;;;1.90;;
71288;SDS011;59068;52.502;9.860;2022-07-09T00:06:32;4.27;;;2.20;;
71288;SDS011;59068;52.502;9.860;2022-07-09T00:08:58;2.67;;;2.10;;
71288;SDS011;59068;52.502;9.860;2022-07-09T00:11:23;3.13;;;1.97;;
71288;SDS011;59068;52.502;9.860;2022-07-09T00:13:49;3.93;;;2.43;;
71288;SDS011;59068;52.502;9.860;2022-07-09T00:16:14;4.17;;;2.07;;
71288;SDS011;59068;52.502;9.860;2022-07-09T00:18:40;3.20;;;2.00;;
71288;SDS011;59068;52.502;9.860;2022-07-09T00:21:05;4.13;;;1.90;;
71288;SDS011;59068;52.502;9.860;2022-07-09T00:23:31;5.13;;;2.00;;
71288;SDS011;59068;52.502;9.860;2022-07-09T00:25:56;5.27;;;2.40;;
71288;SDS011;59068;52.502;9.860;2022-07-09T00:28:21;4.10;;;1.97;;
71288;SDS011;59068;52.502;9.860;2022-07-09T00:30:47;2.87;;;2.20;;
71288;SDS011;59068;52.502;9.860;2022-07-09T00:33:12;2.67;;;2.10;;
71288;SDS011;59068;52.502;9.860;2022-07-09T00:35:38;4.70;;;2.43;;
71288;SDS011;59068;52.502;9.860;2022-07-09T00:38:03;2.23;;;2.03;;
71288;SDS011;59068;52.502;9.860;2022-07-09T00:40:29;2.50;;;1.90;;
71288;SDS011;59068;52.502;9.860;2022-07-09T00:42:54;4.63;;;2.33;;
71288;SDS011;59068;52.502;9.860;2022-07-09T00:45:19;4.37;;;2.37;;
71288;SDS011;59068;52.502;9.860;2022-07-09T00:47:45;3.10;;;2.00;;
71288;SDS011;59068;52.502;9.860;2022-07-09T00:50:10;3.07;;;2.30;;
71288;SDS011;59068;52.502;9.860;2022-07-09T00:52:36;3.63;;;2.57;;
71288;SDS011;59068;52.502;9.860;2022-07-09T00:55:03;5.87;;;2.50;;
71288;SDS011;59068;52.502;9.860;2022-07-09T00:57:30;3.73;;;2.50;;
71288;SDS011;59068;52.502;9.860;2022-07-09T00:59:56;3.03;;;2.70;;
71288;SDS011;59068;52.502;9.860;2022-07-09T01:02:22;4.63;;;2.60;;
71288;SDS011;59068;52.502;9.860;2022-07-09T01:04:48;3.30;;;2.90;;
71288;SDS011;59068;52.502;9.860;2022-07-09T01:07:13;4.23;;;3.03;;
71288;SDS011;59068;52.502;9.860;2022-07-09T01:09:39;6.30;;;3.50;;
71288;SDS011;59068;52.502;9.860;2022-07-09T01:12:04;4.33;;;2.87;;
71288;SDS011;59068;52.502;9.860;2022-07-09T01:14:31;6.13;;;3.47;;
71288;SDS011;59068;52.502;9.860;2022-07-09T01:16:57;4.40;;;3.23;;
71288;SDS011;59068;52.502;9.860;2022-07-09T01:19:25;6.30;;;3.30;;
71288;SDS011;59068;52.502;9.860;2022-07-09T01:21:51;5.43;;;3.10;;
71288;SDS011;59068;52.502;9.860;2022-07-09T01:24:16;4.87;;;3.53;;
71288;SDS011;59068;52.502;9.860;2022-07-09T01:26:42;4.90;;;3.37;;
71288;SDS011;59068;52.502;9.860;2022-07-09T01:29:07;4.27;;;2.97;;
71288;SDS011;59068;52.502;9.860;2022-07-09T01:31:33;3.43;;;3.10;;
71288;SDS011;59068;52.502;9.860;2022-07-09T01:33:58;6.97;;;3.80;;
71288;SDS011;59068;52.502;9.860;2022-07-09T01:36:23;5.77;;;3.50;;
71288;SDS011;59068;52.502;9.860;2022-07-09T01:38:49;4.97;;;3.30;;
71288;SDS011;59068;52.502;9.860;2022-07-09T01:41:14;3.97;;;3.60;;
71288;SDS011;59068;52.502;9.860;2022-07-09T01:43:40;5.73;;;3.30;;
71288;SDS011;59068;52.502;9.860;2022-07-09T01:46:05;4.37;;;3.60;;
71288;SDS011;59068;52.502;9.860;2022-07-09T01:48:32;5.83;;;3.47;;
71288;SDS011;59068;52.502;9.860;2022-07-09T01:50:59;3.50;;;2.70;;
71288;SDS011;59068;52.502;9.860;2022-07-09T01:53:24;6.27;;;3.27;;
71288;SDS011;59068;52.502;9.860;2022-07-09T01:55:50;3.90;;;3.20;;
71288;SDS011;59068;52.502;9.860;2022-07-09T01:58:15;6.70;;;3.20;;
71288;SDS011;59068;52.502;9.860;2022-07-09T02:00:40;4.57;;;2.93;;
71288;SDS011;59068;52.502;9.860;2022-07-09T02:03:06;4.23;;;3.13;;
71288;SDS011;59068;52.502;9.860;2022-07-09T02:05:31;3.73;;;2.73;;
71288;SDS011;59068;52.502;9.860;2022-07-09T02:07:57;3.30;;;2.70;;
71288;SDS011;59068;52.502;9.860;2022-07-09T02:10:22;4.03;;;2.80;;
71288;SDS011;59068;52.502;9.860;2022-07-09T02:12:47;4.67;;;2.90;;
71288;SDS011;59068;52.502;9.860;2022-07-09T02:15:13;7.07;;;2.90;;
71288;SDS011;59068;52.502;9.860;2022-07-09T02:17:38;3.33;;;2.60;;
71288;SDS011;59068;52.502;9.860;2022-07-09T02:20:04;4.87;;;2.80;;
71288;SDS011;59068;52.502;9.860;2022-07-09T02:22:30;6.07;;;2.70;;
71288;SDS011;59068;52.502;9.860;2022-07-09T02:24:56;4.57;;;3.03;;
71288;SDS011;59068;52.502;9.860;2022-07-09T02:27:21;7.20;;;3.03;;
71288;SDS011;59068;52.502;9.860;2022-07-09T02:29:47;4.20;;;3.20;;
71288;SDS011;59068;52.502;9.860;2022-07-09T02:32:12;4.90;;;3.23;;
71288;SDS011;59068;52.502;9.860;2022-07-09T02:34:38;3.70;;;3.10;;
71288;SDS011;59068;52.502;9.860;2022-07-09T02:37:04;5.70;;;3.50;;
71288;SDS011;59068;52.502;9.860;2022-07-09T02:39:30;6.00;;;4.23;;
71288;SDS011;59068;52.502;9.860;2022-07-09T02:41:56;5.43;;;3.63;;
71288;SDS011;59068;52.502;9.860;2022-07-09T02:44:21;8.27;;;3.70;;
71288;SDS011;59068;52.502;9.860;2022-07-09T02:46:47;6.50;;;3.97;;
71288;SDS011;59068;52.502;9.860;2022-07-09T02:49:12;7.30;;;3.83;;
71288;SDS011;59068;52.502;9.860;2022-07-09T02:51:38;5.17;;;3.60;;
71288;SDS011;59068;52.502;9.860;2022-07-09T02:54:03;5.73;;;3.83;;
71288;SDS011;59068;52.502;9.860;2022-07-09T02:56:29;6.63;;;4.07;;
71288;SDS011;59068;52.502;9.860;2022-07-09T02:58:55;7.43;;;4.10;;
71288;SDS011;59068;52.502;9.860;2022-07-09T03:01:20;6.97;;;4.00;;
71288;SDS011;59068;52.502;9.860;2022-07-09T03:03:45;6.87;;;4.13;;
71288;SDS011;59068;52.502;9.860;2022-07-09T03:06:11;6.50;;;3.67;;
71288;SDS011;59068;52.502;9.860;2022-07-09T03:08:37;10.63;;;4.27;;
71288;SDS011;59068;52.502;9.860;2022-07-09T03:11:03;5.93;;;3.90;;
71288;SDS011;59068;52.502;9.860;2022-07-09T03:13:31;5.87;;;3.70;;
71288;SDS011;59068;52.502;9.860;2022-07-09T03:15:57;7.27;;;4.30;;
71288;SDS011;59068;52.502;9.860;2022-07-09T03:18:24;5.17;;;3.60;;
71288;SDS011;59068;52.502;9.860;2022-07-09T03:20:49;8.70;;;4.40;;
71288;SDS011;59068;52.502;9.860;2022-07-09T03:23:16;6.57;;;4.70;;
71288;SDS011;59068;52.502;9.860;2022-07-09T03:25:41;5.53;;;3.97;;
71288;SDS011;59068;52.502;9.860;2022-07-09T03:28:08;6.53;;;4.23;;
71288;SDS011;59068;52.502;9.860;2022-07-09T03:30:33;8.33;;;4.57;;
71288;SDS011;59068;52.502;9.860;2022-07-09T03:32:59;10.50;;;4.90;;
71288;SDS011;59068;52.502;9.860;2022-07-09T03:35:24;6.10;;;4.33;;
71288;SDS011;59068;52.502;9.860;2022-07-09T03:37:49;8.93;;;4.70;;
71288;SDS011;59068;52.502;9.860;2022-07-09T03:40:15;5.43;;;4.93;;
71288;SDS011;59068;52.502;9.860;2022-07-09T03:42:40;7.33;;;5.17;;
71288;SDS011;59068;52.502;9.860;2022-07-09T03:45:06;8.77;;;4.90;;
71288;SDS011;59068;52.502;9.860;2022-07-09T03:47:32;9.53;;;5.27;;
71288;SDS011;59068;52.502;9.860;2022-07-09T03:49:57;8.70;;;5.00;;
71288;SDS011;59068;52.502;9.860;2022-07-09T03:52:22;7.53;;;5.27;;
71288;SDS011;59068;52.502;9.860;2022-07-09T03:54:48;8.60;;;5.10;;
71288;SDS011;59068;52.502;9.860;2022-07-09T03:57:14;8.23;;;5.20;;
71288;SDS011;59068;52.502;9.860;2022-07-09T03:59:39;8.50;;;5.40;;
71288;SDS011;59068;52.502;9.860;2022-07-09T04:02:05;7.30;;;4.53;;
71288;SDS011;59068;52.502;9.860;2022-07-09T04:04:30;7.67;;;5.10;;
71288;SDS011;59068;52.502;9.860;2022-07-09T04:06:56;8.00;;;5.50;;
71288;SDS011;59068;52.502;9.860;2022-07-09T04:09:22;7.83;;;5.30;;
71288;SDS011;59068;52.502;9.860;2022-07-09T04:11:47;8.00;;;5.37;;
71288;SDS011;59068;52.502;9.860;2022-07-09T04:14:13;11.17;;;5.83;;
71288;SDS011;59068;52.502;9.860;2022-07-09T04:16:39;11.23;;;5.63;;
71288;SDS011;59068;52.502;9.860;2022-07-09T04:19:05;8.90;;;5.33;;
71288;SDS011;59068;52.502;9.860;2022-07-09T04:21:31;10.10;;;5.27;;
71288;SDS011;59068;52.502;9.860;2022-07-09T04:23:57;6.43;;;5.00;;
71288;SDS011;59068;52.502;9.860;2022-07-09T04:26:22;8.67;;;5.00;;
71288;SDS011;59068;52.502;9.860;2022-07-09T04:28:48;9.67;;;5.27;;
71288;SDS011;59068;52.502;9.860;2022-07-09T04:31:14;6.37;;;5.00;;
71288;SDS011;59068;52.502;9.860;2022-07-09T04:33:41;8.23;;;5.20;;
71288;SDS011;59068;52.502;9.860;2022-07-09T04:36:07;8.43;;;4.70;;
71288;SDS011;59068;52.502;9.860;2022-07-09T04:38:33;7.97;;;5.20;;
71288;SDS011;59068;52.502;9.860;2022-07-09T04:40:58;9.80;;;5.20;;
71288;SDS011;59068;52.502;9.860;2022-07-09T04:43:23;7.23;;;5.27;;
71288;SDS011;59068;52.502;9.860;2022-07-09T04:45:49;6.20;;;4.60;;
71288;SDS011;59068;52.502;9.860;2022-07-09T04:48:15;6.70;;;4.57;;
71288;SDS011;59068;52.502;9.860;2022-07-09T04:50:40;6.37;;;5.10;;
71288;SDS011;59068;52.502;9.860;2022-07-09T04:53:06;6.83;;;4.53;;
71288;SDS011;59068;52.502;9.860;2022-07-09T04:55:31;6.80;;;5.30;;
71288;SDS011;59068;52.502;9.860;2022-07-09T04:57:57;7.27;;;5.47;;
71288;SDS011;59068;52.502;9.860;2022-07-09T05:00:22;8.50;;;5.17;;
71288;SDS011;59068;52.502;9.860;2022-07-09T05:02:48;10.40;;;5.47;;
71288;SDS011;59068;52.502;9.860;2022-07-09T05:05:14;7.87;;;6.40;;
71288;SDS011;59068;52.502;9.860;2022-07-09T05:07:39;9.10;;;5.50;;
71288;SDS011;59068;52.502;9.860;2022-07-09T05:10:06;5.97;;;5.10;;
71288;SDS011;59068;52.502;9.860;2022-07-09T05:12:32;13.30;;;6.07;;
71288;SDS011;59068;52.502;9.860;2022-07-09T05:14:58;8.00;;;5.13;;
71288;SDS011;59068;52.502;9.860;2022-07-09T05:17:24;9.50;;;5.90;;
71288;SDS011;59068;52.502;9.860;2022-07-09T05:19:49;9.67;;;6.00;;
71288;SDS011;59068;52.502;9.860;2022-07-09T05:22:15;11.23;;;6.33;;
71288;SDS011;59068;52.502;9.860;2022-07-09T05:24:41;7.70;;;6.37;;
71288;SDS011;59068;52.502;9.860;2022-07-09T05:27:07;7.17;;;5.80;;
71288;SDS011;59068;52.502;9.860;2022-07-09T05:29:34;8.40;;;5.70;;
71288;SDS011;59068;52.502;9.860;2022-07-09T05:32:00;10.97;;;6.03;;
71288;SDS011;59068;52.502;9.860;2022-07-09T05:34:25;10.20;;;6.23;;
71288;SDS011;59068;52.502;9.860;2022-07-09T05:36:51;9.50;;;5.93;;
71288;SDS011;59068;52.502;9.860;2022-07-09T05:39:20;11.90;;;6.20;;
71288;SDS011;59068;52.502;9.860;2022-07-09T05:41:46;9.63;;;7.57;;
71288;SDS011;59068;52.502;9.860;2022-07-09T05:44:12;10.17;;;8.33;;
71288;SDS011;59068;52.502;9.860;2022-07-09T05:46:37;9.80;;;8.00;;
71288;SDS011;59068;52.502;9.860;2022-07-09T05:49:03;11.43;;;9.60;;
71288;SDS011;59068;52.502;9.860;2022-07-09T05:51:28;12.37;;;8.53;;
71288;SDS011;59068;52.502;9.860;2022-07-09T05:53:54;9.90;;;8.23;;
71288;SDS011;59068;52.502;9.860;2022-07-09T05:56:19;17.03;;;10.77;;
71288;SDS011;59068;52.502;9.860;2022-07-09T05:58:45;9.83;;;8.77;;
71288;SDS011;59068;52.502;9.860;2022-07-09T06:01:11;13.17;;;8.53;;
71288;SDS011;59068;52.502;9.860;2022-07-09T06:03:38;9.77;;;8.37;;
71288;SDS011;59068;52.502;9.860;2022-07-09T06:06:04;8.20;;;7.33;;
71288;SDS011;59068;52.502;9.860;2022-07-09T06:08:30;8.67;;;6.40;;
71288;SDS011;59068;52.502;9.860;2022-07-09T06:10:57;8.17;;;6.23;;
71288;SDS011;59068;52.502;9.860;2022-07-09T06:13:23;8.00;;;6.87;;
71288;SDS011;59068;52.502;9.860;2022-07-09T06:15:48;7.70;;;6.80;;
71288;SDS011;59068;52.502;9.860;2022-07-09T06:18:14;7.23;;;6.43;;
71288;SDS011;59068;52.502;9.860;2022-07-09T06:20:39;8.40;;;6.03;;
71288;SDS011;59068;52.502;9.860;2022-07-09T06:23:05;11.40;;;6.30;;
71288;SDS011;59068;52.502;9.860;2022-07-09T06:25:31;9.00;;;6.37;;
71288;SDS011;59068;52.502;9.860;2022-07-09T06:27:57;6.83;;;6.13;;
71288;SDS011;59068;52.502;9.860;2022-07-09T06:30:22;5.80;;;5.20;;
71288;SDS011;59068;52.502;9.860;2022-07-09T06:32:47;8.30;;;5.23;;
71288;SDS011;59068;52.502;9.860;2022-07-09T06:35:13;7.97;;;4.10;;
71288;SDS011;59068;52.502;9.860;2022-07-09T06:37:38;5.57;;;4.30;;
71288;SDS011;59068;52.502;9.860;2022-07-09T06:40:04;4.30;;;3.90;;
71288;SDS011;59068;52.502;9.860;2022-07-09T06:42:30;7.23;;;3.73;;
71288;SDS011;59068;52.502;9.860;2022-07-09T06:44:56;5.77;;;4.13;;
71288;SDS011;59068;52.502;9.860;2022-07-09T06:47:22;4.53;;;4.13;;
71288;SDS011;59068;52.502;9.860;2022-07-09T06:49:47;4.50;;;3.67;;
71288;SDS011;59068;52.502;9.860;2022-07-09T06:52:12;5.30;;;4.47;;
71288;SDS011;59068;52.502;9.860;2022-07-09T06:54:38;7.53;;;4.40;;
71288;SDS011;59068;52.502;9.860;2022-07-09T06:57:03;6.90;;;4.90;;
71288;SDS011;59068;52.502;9.860;2022-07-09T06:59:29;7.73;;;5.33;;
71288;SDS011;59068;52.502;9.860;2022-07-09T07:01:55;7.30;;;4.53;;
71288;SDS011;59068;52.502;9.860;2022-07-09T07:04:20;5.17;;;4.67;;
71288;SDS011;59068;52.502;9.860;2022-07-09T07:06:46;6.60;;;4.67;;
71288;SDS011;59068;52.502;9.860;2022-07-09T07:09:13;5.17;;;4.73;;
71288;SDS011;59068;52.502;9.860;2022-07-09T07:11:40;6.50;;;4.93;;
71288;SDS011;59068;52.502;9.860;2022-07-09T07:14:06;5.30;;;4.50;;
71288;SDS011;59068;52.502;9.860;2022-07-09T07:16:31;6.00;;;5.10;;
71288;SDS011;59068;52.502;9.860;2022-07-09T07:18:57;5.60;;;5.00;;
71288;SDS011;59068;52.502;9.860;2022-07-09T07:21:23;5.63;;;4.07;;
71288;SDS011;59068;52.502;9.860;2022-07-09T07:23:48;5.93;;;4.07;;
71288;SDS011;59068;52.502;9.860;2022-07-09T07:26:14;3.70;;;3.30;;
71288;SDS011;59068;52.502;9.860;2022-07-09T07:28:39;3.00;;;2.70;;
71288;SDS011;59068;52.502;9.860;2022-07-09T07:31:05;3.30;;;3.00;;
71288;SDS011;59068;52.502;9.860;2022-07-09T07:33:30;3.57;;;2.70;;
71288;SDS011;59068;52.502;9.860;2022-07-09T07:35:55;3.37;;;2.73;;
71288;SDS011;59068;52.502;9.860;2022-07-09T07:38:21;4.47;;;3.13;;
71288;SDS011;59068;52.502;9.860;2022-07-09T07:40:47;3.27;;;2.97;;
71288;SDS011;59068;52.502;9.860;2022-07-09T07:43:13;3.77;;;3.23;;
71288;SDS011;59068;52.502;9.860;2022-07-09T07:45:38;3.37;;;3.07;;
71288;SDS011;59068;52.502;9.860;2022-07-09T07:48:04;7.47;;;3.50;;
71288;SDS011;59068;52.502;9.860;2022-07-09T07:50:30;3.47;;;2.93;;
71288;SDS011;59068;52.502;9.860;2022-07-09T07:52:58;3.43;;;2.60;;
71288;SDS011;59068;52.502;9.860;2022-07-09T07:55:24;4.40;;;2.90;;
71288;SDS011;59068;52.502;9.860;2022-07-09T07:57:49;3.10;;;2.77;;
71288;SDS011;59068;52.502;9.860;2022-07-09T08:00:15;3.23;;;2.80;;
71288;SDS011;59068;52.502;9.860;2022-07-09T08:02:41;3.97;;;2.47;;
71288;SDS011;59068;52.502;9.860;2022-07-09T08:05:07;5.60;;;2.77;;
71288;SDS011;59068;52.502;9.860;2022-07-09T08:07:33;4.10;;;2.90;;
71288;SDS011;59068;52.502;9.860;2022-07-09T08:09:58;3.60;;;2.60;;
71288;SDS011;59068;52.502;9.860;2022-07-09T08:12:24;4.50;;;2.50;;
71288;SDS011;59068;52.502;9.860;2022-07-09T08:14:50;4.83;;;2.90;;
71288;SDS011;59068;52.502;9.860;2022-07-09T08:17:15;5.30;;;2.73;;
71288;SDS011;59068;52.502;9.860;2022-07-09T08:19:41;3.17;;;2.33;;
71288;SDS011;59068;52.502;9.860;2022-07-09T08:22:06;2.90;;;2.60;;
71288;SDS011;59068;52.502;9.860;2022-07-09T08:24:32;4.83;;;2.80;;
71288;SDS011;59068;52.502;9.860;2022-07-09T08:26:57;3.27;;;2.97;;
71288;SDS011;59068;52.502;9.860;2022-07-09T08:29:24;4.03;;;2.50;;
71288;SDS011;59068;52.502;9.860;2022-07-09T08:31:50;3.63;;;2.93;;
71288;SDS011;59068;52.502;9.860;2022-07-09T08:34:15;3.10;;;2.80;;
71288;SDS011;59068;52.502;9.860;2022-07-09T08:36:41;4.73;;;3.10;;
71288;SDS011;59068;52.502;9.860;2022-07-09T08:39:06;3.80;;;2.80;;
71288;SDS011;59068;52.502;9.860;2022-07-09T08:41:32;4.03;;;2.80;;
71288;SDS011;59068;52.502;9.860;2022-07-09T08:43:57;4.57;;;2.63;;
71288;SDS011;59068;52.502;9.860;2022-07-09T08:46:25;3.87;;;2.73;;
71288;SDS011;59068;52.502;9.860;2022-07-09T08:48:50;4.37;;;3.17;;
71288;SDS011;59068;52.502;9.860;2022-07-09T08:51:17;3.70;;;3.17;;
71288;SDS011;59068;52.502;9.860;2022-07-09T08:53:44;4.00;;;3.60;;
71288;SDS011;59068;52.502;9.860;2022-07-09T08:56:10;3.60;;;3.30;;
71288;SDS011;59068;52.502;9.860;2022-07-09T08:58:39;3.70;;;3.40;;
71288;SDS011;59068;52.502;9.860;2022-07-09T09:01:05;4.37;;;3.17;;
71288;SDS011;59068;52.502;9.860;2022-07-09T09:03:31;4.47;;;3.57;;
71288;SDS011;59068;52.502;9.860;2022-07-09T09:06:04;4.57;;;3.20;;
71288;SDS011;59068;52.502;9.860;2022-07-09T09:08:36;4.17;;;3.10;;
71288;SDS011;59068;52.502;9.860;2022-07-09T09:11:03;3.23;;;2.93;;
71288;SDS011;59068;52.502;9.860;2022-07-09T09:13:42;4.33;;;2.57;;
71288;SDS011;59068;52.502;9.860;2022-07-09T09:16:09;3.93;;;2.87;;
71288;SDS011;59068;52.502;9.860;2022-07-09T09:18:56;3.67;;;2.90;;
71288;SDS011;59068;52.502;9.860;2022-07-09T09:21:25;4.50;;;2.50;;
71288;SDS011;59068;52.502;9.860;2022-07-09T09:23:53;2.47;;;2.27;;
71288;SDS011;59068;52.502;9.860;2022-07-09T09:26:21;2.10;;;2.00;;
71288;SDS011;59068;52.502;9.860;2022-07-09T09:28:53;2.77;;;2.30;;
71288;SDS011;59068;52.502;9.860;2022-07-09T09:31:27;2.63;;;2.20;;
71288;SDS011;59068;52.502;9.860;2022-07-09T09:33:55;2.33;;;2.20;;
71288;SDS011;59068;52.502;9.860;2022-07-09T09:36:39;4.50;;;2.23;;
71288;SDS011;59068;52.502;9.860;2022-07-09T09:41:39;6.27;;;2.60;;
71288;SDS011;59068;52.502;9.860;2022-07-09T09:44:06;2.07;;;1.97;;
71288;SDS011;59068;52.502;9.860;2022-07-09T09:46:39;2.13;;;1.90;;
71288;SDS011;59068;52.502;9.860;2022-07-09T09:49:05;3.00;;;2.20;;
71288;SDS011;59068;52.502;9.860;2022-07-09T09:51:36;3.97;;;2.07;;
71288;SDS011;59068;52.502;9.860;2022-07-09T09:54:06;2.20;;;1.93;;
71288;SDS011;59068;52.502;9.860;2022-07-09T09:56:33;2.10;;;2.00;;
71288;SDS011;59068;52.502;9.860;2022-07-09T09:59:00;2.10;;;2.00;;
71288;SDS011;59068;52.502;9.860;2022-07-09T10:01:26;1.97;;;1.83;;
71288;SDS011;59068;52.502;9.860;2022-07-09T10:03:53;3.77;;;2.30;;
71288;SDS011;59068;52.502;9.860;2022-07-09T10:06:19;2.43;;;1.90;;
71288;SDS011;59068;52.502;9.860;2022-07-09T10:08:45;1.77;;;1.67;;
71288;SDS011;59068;52.502;9.860;2022-07-09T10:11:10;2.47;;;2.17;;
71288;SDS011;59068;52.502;9.860;2022-07-09T10:13:52;3.57;;;2.10;;
71288;SDS011;59068;52.502;9.860;2022-07-09T10:16:19;2.30;;;1.80;;
71288;SDS011;59068;52.502;9.860;2022-07-09T10:18:53;1.93;;;1.50;;
71288;SDS011;59068;52.502;9.860;2022-07-09T10:21:31;1.93;;;1.43;;
71288;SDS011;59068;52.502;9.860;2022-07-09T10:24:02;3.07;;;2.00;;
71288;SDS011;59068;52.502;9.860;2022-07-09T10:26:37;2.67;;;1.73;;
71288;SDS011;59068;52.502;9.860;2022-07-09T10:29:27;1.57;;;1.40;;
71288;SDS011;59068;52.502;9.860;2022-07-09T10:31:54;2.13;;;1.97;;
71288;SDS011;59068;52.502;9.860;2022-07-09T10:37:13;2.67;;;1.50;;
71288;SDS011;59068;52.502;9.860;2022-07-09T10:39:39;2.43;;;2.00;;
71288;SDS011;59068;52.502;9.860;2022-07-09T10:42:17;3.13;;;1.70;;
71288;SDS011;59068;52.502;9.860;2022-07-09T10:44:46;3.37;;;1.60;;
71288;SDS011;59068;52.502;9.860;2022-07-09T10:47:15;2.37;;;2.17;;
71288;SDS011;59068;52.502;9.860;2022-07-09T10:49:41;1.63;;;1.53;;
71288;SDS011;59068;52.502;9.860;2022-07-09T10:52:07;3.40;;;1.50;;
71288;SDS011;59068;52.502;9.860;2022-07-09T10:54:33;1.70;;;1.43;;
71288;SDS011;59068;52.502;9.860;2022-07-09T10:56:59;1.27;;;1.27;;
71288;SDS011;59068;52.502;9.860;2022-07-09T10:59:26;1.57;;;1.40;;
71288;SDS011;59068;52.502;9.860;2022-07-09T11:01:51;2.10;;;1.27;;
71288;SDS011;59068;52.502;9.860;2022-07-09T11:04:24;1.73;;;1.27;;
71288;SDS011;59068;52.502;9.860;2022-07-09T11:06:50;1.30;;;1.20;;
71288;SDS011;59068;52.502;9.860;2022-07-09T11:09:16;1.60;;;1.10;;
71288;SDS011;59068;52.502;9.860;2022-07-09T11:11:42;1.00;;;0.90;;
71288;SDS011;59068;52.502;9.860;2022-07-09T11:14:11;2.03;;;1.13;;
71288;SDS011;59068;52.502;9.860;2022-07-09T11:16:36;1.37;;;0.73;;
71288;SDS011;59068;52.502;9.860;2022-07-09T11:19:18;1.97;;;1.10;;
71288;SDS011;59068;52.502;9.860;2022-07-09T11:21:45;2.93;;;1.13;;
71288;SDS011;59068;52.502;9.860;2022-07-09T11:24:17;1.90;;;1.00;;
71288;SDS011;59068;52.502;9.860;2022-07-09T11:26:44;1.53;;;0.97;;
71288;SDS011;59068;52.502;9.860;2022-07-09T11:29:12;1.27;;;0.90;;
71288;SDS011;59068;52.502;9.860;2022-07-09T11:31:48;2.13;;;0.80;;
71288;SDS011;59068;52.502;9.860;2022-07-09T11:34:14;1.33;;;1.00;;
71288;SDS011;59068;52.502;9.860;2022-07-09T11:36:42;2.20;;;0.90;;
71288;SDS011;59068;52.502;9.860;2022-07-09T11:39:08;2.47;;;1.00;;
71288;SDS011;59068;52.502;9.860;2022-07-09T11:41:41;1.73;;;1.10;;
71288;SDS011;59068;52.502;9.860;2022-07-09T11:44:07;1.00;;;1.00;;
71288;SDS011;59068;52.502;9.860;2022-07-09T11:46:33;1.50;;;0.90;;
71288;SDS011;59068;52.502;9.860;2022-07-09T11:48:58;3.17;;;0.80;;
71288;SDS011;59068;52.502;9.860;2022-07-09T11:51:31;1.40;;;0.90;;
71288;SDS011;59068;52.502;9.860;2022-07-09T11:53:57;1.13;;;1.03;;
71288;SDS011;59068;52.502;9.860;2022-07-09T11:56:23;0.97;;;0.80;;
71288;SDS011;59068;52.502;9.860;2022-07-09T11:58:49;0.80;;;0.80;;
71288;SDS011;59068;52.502;9.860;2022-07-09T12:01:16;1.73;;;1.10;;
71288;SDS011;59068;52.502;9.860;2022-07-09T12:03:48;1.50;;;0.70;;
71288;SDS011;59068;52.502;9.860;2022-07-09T12:06:15;1.30;;;0.80;;
71288;SDS011;59068;52.502;9.860;2022-07-09T12:08:41;1.03;;;0.70;;
71288;SDS011;59068;52.502;9.860;2022-07-09T12:11:07;2.87;;;1.53;;
71288;SDS011;59068;52.502;9.860;2022-07-09T12:13:32;1.03;;;0.80;;
71288;SDS011;59068;52.502;9.860;2022-07-09T12:15:58;0.60;;;0.60;;
71288;SDS011;59068;52.502;9.860;2022-07-09T12:18:24;1.00;;;0.80;;
71288;SDS011;59068;52.502;9.860;2022-07-09T12:20:50;1.10;;;0.80;;
71288;SDS011;59068;52.502;9.860;2022-07-09T12:23:15;0.70;;;0.70;;
71288;SDS011;59068;52.502;9.860;2022-07-09T12:25:41;0.70;;;0.70;;
71288;SDS011;59068;52.502;9.860;2022-07-09T12:28:07;1.80;;;0.80;;
71288;SDS011;59068;52.502;9.860;2022-07-09T12:30:33;1.07;;;0.80;;
71288;SDS011;59068;52.502;9.860;2022-07-09T12:32:58;1.40;;;0.90;;
71288;SDS011;59068;52.502;9.860;2022-07-09T12:35:24;2.17;;;1.10;;
71288;SDS011;59068;52.502;9.860;2022-07-09T12:37:51;2.10;;;1.20;;
71288;SDS011;59068;52.502;9.860;2022-07-09T12:40:17;6.67;;;1.60;;
71288;SDS011;59068;52.502;9.860;2022-07-09T12:42:42;6.47;;;2.53;;
71288;SDS011;59068;52.502;9.860;2022-07-09T12:45:08;4.00;;;1.80;;
71288;SDS011;59068;52.502;9.860;2022-07-09T12:47:34;2.10;;;1.90;;
71288;SDS011;59068;52.502;9.860;2022-07-09T12:50:00;3.67;;;2.10;;
71288;SDS011;59068;52.502;9.860;2022-07-09T12:52:27;2.50;;;2.30;;
71288;SDS011;59068;52.502;9.860;2022-07-09T12:54:54;3.60;;;2.20;;
71288;SDS011;59068;52.502;9.860;2022-07-09T12:57:20;6.33;;;2.20;;
71288;SDS011;59068;52.502;9.860;2022-07-09T12:59:45;2.90;;;2.13;;
71288;SDS011;59068;52.502;9.860;2022-07-09T13:02:11;3.07;;;1.90;;
71288;SDS011;59068;52.502;9.860;2022-07-09T13:04:37;2.97;;;2.00;;
71288;SDS011;59068;52.502;9.860;2022-07-09T13:07:02;4.77;;;2.20;;
71288;SDS011;59068;52.502;9.860;2022-07-09T13:09:28;2.50;;;2.30;;
71288;SDS011;59068;52.502;9.860;2022-07-09T13:11:53;3.23;;;2.07;;
71288;SDS011;59068;52.502;9.860;2022-07-09T13:14:19;2.17;;;1.63;;
71288;SDS011;59068;52.502;9.860;2022-07-09T13:16:44;2.10;;;1.83;;
71288;SDS011;59068;52.502;9.860;2022-07-09T13:19:10;3.20;;;1.63;;
71288;SDS011;59068;52.502;9.860;2022-07-09T13:21:35;2.40;;;1.43;;
71288;SDS011;59068;52.502;9.860;2022-07-09T13:24:01;1.70;;;1.60;;
71288;SDS011;59068;52.502;9.860;2022-07-09T13:26:27;1.43;;;1.33;;
71288;SDS011;59068;52.502;9.860;2022-07-09T13:28:53;3.13;;;1.20;;
71288;SDS011;59068;52.502;9.860;2022-07-09T13:31:19;2.47;;;1.20;;
71288;SDS011;59068;52.502;9.860;2022-07-09T13:33:46;1.97;;;1.30;;
71288;SDS011;59068;52.502;9.860;2022-07-09T13:36:12;1.87;;;1.17;;
71288;SDS011;59068;52.502;9.860;2022-07-09T13:38:37;1.23;;;1.17;;
71288;SDS011;59068;52.502;9.860;2022-07-09T13:41:03;2.07;;;1.20;;
71288;SDS011;59068;52.502;9.860;2022-07-09T13:43:29;1.20;;;1.10;;
71288;SDS011;59068;52.502;9.860;2022-07-09T13:45:55;1.63;;;1.00;;
71288;SDS011;59068;52.502;9.860;2022-07-09T13:48:21;1.23;;;1.13;;
71288;SDS011;59068;52.502;9.860;2022-07-09T13:50:47;1.63;;;0.83;;
71288;SDS011;59068;52.502;9.860;2022-07-09T13:53:12;0.83;;;0.73;;
71288;SDS011;59068;52.502;9.860;2022-07-09T13:55:38;0.97;;;0.93;;
71288;SDS011;59068;52.502;9.860;2022-07-09T13:58:03;2.23;;;0.93;;
71288;SDS011;59068;52.502;9.860;2022-07-09T14:00:29;2.40;;;1.10;;
71288;SDS011;59068;52.502;9.860;2022-07-09T14:02:54;1.00;;;1.00;;
71288;SDS011;59068;52.502;9.860;2022-07-09T14:05:20;2.17;;;1.00;;
71288;SDS011;59068;52.502;9.860;2022-07-09T14:07:45;1.00;;;1.00;;
71288;SDS011;59068;52.502;9.860;2022-07-09T14:10:11;1.20;;;1.10;;
71288;SDS011;59068;52.502;9.860;2022-07-09T14:12:37;1.30;;;0.97;;
71288;SDS011;59068;52.502;9.860;2022-07-09T14:15:03;2.63;;;1.20;;
71288;SDS011;59068;52.502;9.860;2022-07-09T14:17:29;0.97;;;0.90;;
71288;SDS011;59068;52.502;9.860;2022-07-09T14:19:55;1.40;;;1.03;;
71288;SDS011;59068;52.502;9.860;2022-07-09T14:22:20;1.87;;;1.30;;
71288;SDS011;59068;52.502;9.860;2022-07-09T14:24:46;1.53;;;0.90;;
71288;SDS011;59068;52.502;9.860;2022-07-09T14:27:11;2.57;;;1.40;;
71288;SDS011;59068;52.502;9.860;2022-07-09T14:29:37;1.07;;;1.07;;
71288;SDS011;59068;52.502;9.860;2022-07-09T14:32:03;2.20;;;1.03;;
71288;SDS011;59068;52.502;9.860;2022-07-09T14:34:29;2.20;;;1.10;;
71288;SDS011;59068;52.502;9.860;2022-07-09T14:36:55;3.37;;;1.10;;
71288;SDS011;59068;52.502;9.860;2022-07-09T14:39:21;0.80;;;0.80;;
71288;SDS011;59068;52.502;9.860;2022-07-09T14:41:46;1.80;;;1.00;;
71288;SDS011;59068;52.502;9.860;2022-07-09T14:44:12;2.10;;;1.20;;
71288;SDS011;59068;52.502;9.860;2022-07-09T14:46:41;2.30;;;0.90;;
71288;SDS011;59068;52.502;9.860;2022-07-09T14:49:07;2.43;;;1.13;;